Shinsei Maru — JD2188 — position and weather

sailwx.info

Track history (hours):
 
Tides and Currents Weather Stations Pressure Air Temp Water Temp Dewpoint Dewpoint Depression Visibility Wind Speed Wind Dir Waves Ship Positions

Shinsei Maru

Last reported at 2016-Feb-06 11:30 UTC. Time now 2016-Feb-06 11:37 UTC.
Position N 35°29' E 139°54'.

Length 104 m; draft 6.5 m.

Type: Tanker. MMSI: 431301775.

Date/timePositionNaut miles runAvg speedWind from/ knotsBaromVisibWave heightAir tempDewpointWater temp
2016-Feb-06 11:30N 35°29' E 139°54'5 5.3
2016-Feb-06 10:33N 35°30' E 139°48'2 2.1
2016-Feb-06 09:33N 35°31' E 139°46'0 0.0
2016-Feb-06 08:33N 35°31' E 139°46'0 0.0
2016-Feb-06 07:33N 35°31' E 139°46'0 0.0
2016-Feb-06 06:33N 35°31' E 139°46'0 0.0
2016-Feb-06 05:33N 35°31' E 139°46'4 4.4
2016-Feb-06 04:33N 35°28' E 139°42'7 7.4
2016-Feb-06 03:33N 35°21' E 139°45'1211.7
2016-Feb-06 02:33N 35°09' E 139°46'1413.4
2016-Feb-06 01:32N 34°56' E 139°44'1111.5
2016-Feb-06 00:33N 34°53' E 139°57'1313.1
2016-Feb-05 23:33N 34°59' E 140°11'1612.8
2016-Feb-05 22:18N 35°08' E 140°27'1013.8
2016-Feb-05 21:33N 35°17' E 140°33'43 1.0
2016-Feb-04 04:19N 35°02' E 139°44'1113.9
2016-Feb-04 03:33N 35°13' E 139°46'1212.5
2016-Feb-04 02:33N 35°25' E 139°44'1413.5
2016-Feb-04 01:33N 35°31' E 139°58'4 3.4
2016-Feb-04 00:32N 35°31' E 140°02'0 0.0
2016-Feb-03 23:32N 35°31' E 140°03'0 0.0
2016-Feb-03 22:23N 35°31' E 140°03'0 0.5
2016-Feb-03 21:33N 35°31' E 140°02'7 6.1
2016-Feb-03 20:29N 35°29' E 139°54'0 0.0
2016-Feb-03 19:32N 35°29' E 139°54'0 0.0
2016-Feb-03 18:32N 35°29' E 139°54'0 0.0
2016-Feb-03 17:32N 35°29' E 139°54'0 0.0
2016-Feb-03 16:32N 35°29' E 139°54'0 0.0
2016-Feb-03 15:32N 35°29' E 139°54'0 0.0
2016-Feb-03 14:29N 35°29' E 139°54'0 0.0
2016-Feb-03 13:32N 35°29' E 139°54'0 0.0
2016-Feb-03 12:29N 35°29' E 139°54'0 0.0
2016-Feb-03 11:29N 35°29' E 139°54'7 7.8
2016-Feb-03 10:34N 35°31' E 139°46'0 0.1
2016-Feb-03 09:33N 35°31' E 139°46'0 0.0
2016-Feb-03 08:33N 35°31' E 139°46'0 0.0
2016-Feb-03 07:33N 35°31' E 139°46'0 0.0
2016-Feb-03 06:33N 35°31' E 139°46'1 0.7
2016-Feb-03 05:33N 35°31' E 139°46'7 6.5
2016-Feb-03 04:30N 35°24' E 139°45'0 0.0
2016-Feb-03 03:33N 35°24' E 139°45'6 6.0
2016-Feb-03 02:33N 35°18' E 139°45'1312.9
2016-Feb-03 01:32N 35°04' E 139°45'1212.6
2016-Feb-03 00:33N 34°53' E 139°49'1413.7
2016-Feb-02 23:33N 34°56' E 140°05'1413.9
2016-Feb-02 22:33N 35°04' E 140°19'1313.3
2016-Feb-02 21:34N 35°13' E 140°31'1513.8
2016-Feb-02 20:29N 35°25' E 140°41'0 0.0
2016-Feb-01 09:33N 35°25' E 140°41'29311.7
2016-Jan-31 08:25N 33°58' E 135°01'1012.1
2016-Jan-31 07:33N 34°07' E 135°06'1 0.2
2016-Jan-31 03:23N 34°07' E 135°07'0 0.0
2016-Jan-31 02:29N 34°07' E 135°07'1 0.2
2016-Jan-30 23:33N 34°08' E 135°07'5 4.9
2016-Jan-30 22:31N 34°13' E 135°08'0 0.0
2016-Jan-30 21:31N 34°13' E 135°08'0 0.0
2016-Jan-30 20:31N 34°13' E 135°08'0 0.0
2016-Jan-30 19:31N 34°13' E 135°08'0 0.0
2016-Jan-30 18:31N 34°13' E 135°08'0 0.0
2016-Jan-30 17:31N 34°13' E 135°08'0 0.0
2016-Jan-30 16:31N 34°13' E 135°08'0 0.0
2016-Jan-30 15:31N 34°13' E 135°08'0 0.0
2016-Jan-30 14:31N 34°13' E 135°08'0 0.0
2016-Jan-30 13:31N 34°13' E 135°08'0 0.0
2016-Jan-30 12:31N 34°13' E 135°08'0 0.0
2016-Jan-30 11:31N 34°13' E 135°08'0 0.0
2016-Jan-30 10:31N 34°13' E 135°08'0 0.0
2016-Jan-30 09:31N 34°13' E 135°08'0 0.0
2016-Jan-30 08:28N 34°13' E 135°08'0 0.0
2016-Jan-30 07:31N 34°13' E 135°08'0 0.0
2016-Jan-30 06:31N 34°13' E 135°08'0 0.0
2016-Jan-30 05:31N 34°13' E 135°08'0 0.0
2016-Jan-30 04:31N 34°13' E 135°08'0 0.0
2016-Jan-30 03:31N 34°13' E 135°08'0 0.0
2016-Jan-30 02:31N 34°13' E 135°08'0 0.0
2016-Jan-30 01:31N 34°13' E 135°08'0 0.0
2016-Jan-30 00:31N 34°13' E 135°08'0 0.0
2016-Jan-29 23:31N 34°13' E 135°08'2 1.7
2016-Jan-29 22:33N 34°12' E 135°06'1 0.7
2016-Jan-29 21:29N 34°12' E 135°06'0 0.0
2016-Jan-29 20:32N 34°12' E 135°06'4 3.9
2016-Jan-29 19:33N 34°08' E 135°04'  
Track history (hours):
 
Tides and Currents Weather Stations Pressure Air Temp Water Temp Dewpoint Dewpoint Depression Visibility Wind Speed Wind Dir Waves Ship Positions

Shinsei Maru

Last reported at 2016-Feb-06 11:30 UTC. Time now 2016-Feb-06 11:37 UTC.
Position N 35°29' E 139°54'.

Length 104 m; draft 6.5 m.

Type: Tanker. MMSI: 431301775.

Date/timePositionNaut miles runAvg speedWind from/ knotsBaromVisibWave heightAir tempDewpointWater temp
2016-Feb-06 11:30N 35°29' E 139°54'5 5.3
2016-Feb-06 10:33N 35°30' E 139°48'2 2.1
2016-Feb-06 09:33N 35°31' E 139°46'0 0.0
2016-Feb-06 08:33N 35°31' E 139°46'0 0.0
2016-Feb-06 07:33N 35°31' E 139°46'0 0.0
2016-Feb-06 06:33N 35°31' E 139°46'0 0.0
2016-Feb-06 05:33N 35°31' E 139°46'4 4.4
2016-Feb-06 04:33N 35°28' E 139°42'7 7.4
2016-Feb-06 03:33N 35°21' E 139°45'1211.7
2016-Feb-06 02:33N 35°09' E 139°46'1413.4
2016-Feb-06 01:32N 34°56' E 139°44'1111.5
2016-Feb-06 00:33N 34°53' E 139°57'1313.1
2016-Feb-05 23:33N 34°59' E 140°11'1612.8
2016-Feb-05 22:18N 35°08' E 140°27'1013.8
2016-Feb-05 21:33N 35°17' E 140°33'43 1.0
2016-Feb-04 04:19N 35°02' E 139°44'1113.9
2016-Feb-04 03:33N 35°13' E 139°46'1212.5
2016-Feb-04 02:33N 35°25' E 139°44'1413.5
2016-Feb-04 01:33N 35°31' E 139°58'4 3.4
2016-Feb-04 00:32N 35°31' E 140°02'0 0.0
2016-Feb-03 23:32N 35°31' E 140°03'0 0.0
2016-Feb-03 22:23N 35°31' E 140°03'0 0.5
2016-Feb-03 21:33N 35°31' E 140°02'7 6.1
2016-Feb-03 20:29N 35°29' E 139°54'0 0.0
2016-Feb-03 19:32N 35°29' E 139°54'0 0.0
2016-Feb-03 18:32N 35°29' E 139°54'0 0.0
2016-Feb-03 17:32N 35°29' E 139°54'0 0.0
2016-Feb-03 16:32N 35°29' E 139°54'0 0.0
2016-Feb-03 15:32N 35°29' E 139°54'0 0.0
2016-Feb-03 14:29N 35°29' E 139°54'0 0.0
2016-Feb-03 13:32N 35°29' E 139°54'0 0.0
2016-Feb-03 12:29N 35°29' E 139°54'0 0.0
2016-Feb-03 11:29N 35°29' E 139°54'7 7.8
2016-Feb-03 10:34N 35°31' E 139°46'0 0.1
2016-Feb-03 09:33N 35°31' E 139°46'0 0.0
2016-Feb-03 08:33N 35°31' E 139°46'0 0.0
2016-Feb-03 07:33N 35°31' E 139°46'0 0.0
2016-Feb-03 06:33N 35°31' E 139°46'1 0.7
2016-Feb-03 05:33N 35°31' E 139°46'7 6.5
2016-Feb-03 04:30N 35°24' E 139°45'0 0.0
2016-Feb-03 03:33N 35°24' E 139°45'6 6.0
2016-Feb-03 02:33N 35°18' E 139°45'1312.9
2016-Feb-03 01:32N 35°04' E 139°45'1212.6
2016-Feb-03 00:33N 34°53' E 139°49'1413.7
2016-Feb-02 23:33N 34°56' E 140°05'1413.9
2016-Feb-02 22:33N 35°04' E 140°19'1313.3
2016-Feb-02 21:34N 35°13' E 140°31'1513.8
2016-Feb-02 20:29N 35°25' E 140°41'0 0.0
2016-Feb-01 09:33N 35°25' E 140°41'29311.7
2016-Jan-31 08:25N 33°58' E 135°01'1012.1
2016-Jan-31 07:33N 34°07' E 135°06'1 0.2
2016-Jan-31 03:23N 34°07' E 135°07'0 0.0
2016-Jan-31 02:29N 34°07' E 135°07'1 0.2
2016-Jan-30 23:33N 34°08' E 135°07'5 4.9
2016-Jan-30 22:31N 34°13' E 135°08'0 0.0
2016-Jan-30 21:31N 34°13' E 135°08'0 0.0
2016-Jan-30 20:31N 34°13' E 135°08'0 0.0
2016-Jan-30 19:31N 34°13' E 135°08'0 0.0
2016-Jan-30 18:31N 34°13' E 135°08'0 0.0
2016-Jan-30 17:31N 34°13' E 135°08'0 0.0
2016-Jan-30 16:31N 34°13' E 135°08'0 0.0
2016-Jan-30 15:31N 34°13' E 135°08'0 0.0
2016-Jan-30 14:31N 34°13' E 135°08'0 0.0
2016-Jan-30 13:31N 34°13' E 135°08'0 0.0
2016-Jan-30 12:31N 34°13' E 135°08'0 0.0
2016-Jan-30 11:31N 34°13' E 135°08'0 0.0
2016-Jan-30 10:31N 34°13' E 135°08'0 0.0
2016-Jan-30 09:31N 34°13' E 135°08'0 0.0
2016-Jan-30 08:28N 34°13' E 135°08'0 0.0
2016-Jan-30 07:31N 34°13' E 135°08'0 0.0
2016-Jan-30 06:31N 34°13' E 135°08'0 0.0
2016-Jan-30 05:31N 34°13' E 135°08'0 0.0
2016-Jan-30 04:31N 34°13' E 135°08'0 0.0
2016-Jan-30 03:31N 34°13' E 135°08'0 0.0
2016-Jan-30 02:31N 34°13' E 135°08'0 0.0
2016-Jan-30 01:31N 34°13' E 135°08'0 0.0
2016-Jan-30 00:31N 34°13' E 135°08'0 0.0
2016-Jan-29 23:31N 34°13' E 135°08'2 1.7
2016-Jan-29 22:33N 34°12' E 135°06'1 0.7
2016-Jan-29 21:29N 34°12' E 135°06'0 0.0
2016-Jan-29 20:32N 34°12' E 135°06'4 3.9
2016-Jan-29 19:33N 34°08' E 135°04'  

Dump ship's entire track history